Portada
METAR-TAF:

METAR-TAF

Aeroports :

Aeroport Internacional Amata Kabua

Majuro, Illes Marshall

latitud: 07-04N, longitud: 171-17E, altitud: 2 m

Observació

L'informe es va fer fa 6 hores i 44 minuts, a les 07:56 UTC
Vent 7 kt del Oest/Nord-Oest
Temperatura 29°C
Humitat 79%
Pressió 1011 hPa
Visibilitat: 24.1 km
Escasses núvols a una alçada de 1500 ft
Núvols disperses a una alçada de 5000 ft
Cel ennuvolat a una alçada de 12000 ft
Cel cobert a una alçada de 30000 ft

METAR: PKMJ 150756Z COR 29007KT 15SM FEW015 SCT050 BKN120 OVC300 29/25 A2986 RMK LAST

Hora: 02:40 (14:40 UTC)

Pronòstic

L'informe es va fer fa 3 hores i 14 minuts, a les 11:26 UTC
Pronòstic vàlid del 15 a les 12 UTC al 16 a les 12 UTC
Vent 10 kt del Oest/Sud-Oest
Visibilitat: 10 km
Núvols disperses a una alçada de 1400 ft
Núvols disperses a una alçada de 4000 ft
Cel cobert a una alçada de 11000 ft
xàfecs en les proximitats

TAF: PKMJ 151126Z 1512/1612 25010KT P6SM VCSH SCT014 SCT040 OVC110

Observacions i pronòstics meteorològics de més de 4000 aeroports (METAR i TAF).

Les estacions disponibles són els punts grocs i vermells al mapa.

Posi el ratolí al punt desitjat per veure el nom de l'estació.

Feu clic per veure les observacions i els pronòstics meteorològics.

Per canviar el mapa: feu clic els botons verds amb una creu de color negre per apropar; al botó verd amb un guió per allunyar la imatge; o en les fletxes verdes per a mapes adjacents.


METAR-TAF: